Time,TemperatureF,DewpointF,PressureIn,WindDirection,WindDirectionDegrees,WindSpeedMPH,WindSpeedGustMPH,Humidity,HourlyPrecipIn,Conditions,Clouds,dailyrainin,SoftwareType,DateUTC
2013-02-06 00:00:00,40.0,27.2,29.74,SW,225,4.0,7.6,60,0.00,,,0.00,WUHU216HW,2013-02-06 07:00:00,
2013-02-06 00:10:00,39.6,27.2,29.75,SW,225,2.0,9.8,61,0.00,,,0.00,WUHU216HW,2013-02-06 07:10:00,
2013-02-06 00:21:00,39.4,27.0,29.75,SW,225,2.9,5.6,61,0.00,,,0.00,WUHU216HW,2013-02-06 07:21:00,
2013-02-06 00:31:00,39.4,27.0,29.75,SW,225,1.8,3.8,61,0.00,,,0.00,WUHU216HW,2013-02-06 07:31:00,
2013-02-06 00:42:00,39.4,27.4,29.75,SSW,203,2.7,4.9,62,0.00,,,0.00,WUHU216HW,2013-02-06 07:42:00,
2013-02-06 00:52:00,39.2,27.2,29.75,SSE,158,0.4,2.2,62,0.00,,,0.00,WUHU216HW,2013-02-06 07:52:00,
2013-02-06 01:02:00,39.2,27.2,29.75,WSW,248,1.8,1.8,62,0.00,,,0.00,WUHU216HW,2013-02-06 08:02:00,
2013-02-06 01:13:00,39.2,27.2,29.75,SW,225,1.8,3.4,62,0.00,,,0.00,WUHU216HW,2013-02-06 08:13:00,
2013-02-06 01:23:00,39.2,27.6,29.75,SW,225,1.8,2.5,63,0.00,,,0.00,WUHU216HW,2013-02-06 08:23:00,
2013-02-06 01:33:00,39.1,27.5,29.75,NNW,338,0.4,5.4,63,0.00,,,0.00,WUHU216HW,2013-02-06 08:33:00,
2013-02-06 01:43:00,38.9,27.3,29.75,ENE,68,0.0,1.1,63,0.00,,,0.00,WUHU216HW,2013-02-06 08:43:00,
2013-02-06 01:53:00,38.7,27.1,29.76,NW,315,0.0,2.2,63,0.00,,,0.00,WUHU216HW,2013-02-06 08:53:00,
2013-02-06 02:03:00,38.5,27.4,29.75,West,270,2.0,2.0,64,0.00,,,0.00,WUHU216HW,2013-02-06 09:03:00,
2013-02-06 02:13:00,38.5,27.4,29.76,West,270,2.2,3.1,64,0.00,,,0.00,WUHU216HW,2013-02-06 09:13:00,
2013-02-06 02:23:00,38.3,27.5,29.76,WNW,293,0.0,4.7,65,0.00,,,0.00,WUHU216HW,2013-02-06 09:23:00,
2013-02-06 02:33:00,38.2,28.2,29.76,ESE,113,2.2,3.6,67,0.00,,,0.00,WUHU216HW,2013-02-06 09:33:00,
2013-02-06 02:43:00,38.0,28.0,29.76,ESE,113,1.3,2.7,67,0.00,,,0.00,WUHU216HW,2013-02-06 09:43:00,
2013-02-06 02:53:00,37.8,27.8,29.76,SE,135,1.8,1.8,67,0.00,,,0.00,WUHU216HW,2013-02-06 09:53:00,
2013-02-06 03:05:00,37.8,28.2,29.76,ESE,113,0.4,2.5,68,0.00,,,0.00,WUHU216HW,2013-02-06 10:05:00,
2013-02-06 03:15:00,37.6,28.0,29.76,South,180,2.5,2.5,68,0.00,,,0.00,WUHU216HW,2013-02-06 10:15:00,
2013-02-06 03:25:00,37.4,27.9,29.76,SE,135,0.0,1.1,68,0.00,,,0.00,WUHU216HW,2013-02-06 10:25:00,
2013-02-06 03:35:00,37.3,27.7,29.76,SW,225,0.0,0.2,68,0.00,,,0.00,WUHU216HW,2013-02-06 10:35:00,
2013-02-06 03:45:00,37.3,28.1,29.76,SE,135,1.6,1.6,69,0.00,,,0.00,WUHU216HW,2013-02-06 10:45:00,
2013-02-06 03:55:00,37.1,27.9,29.76,SE,135,1.1,3.4,69,0.00,,,0.00,WUHU216HW,2013-02-06 10:55:00,
2013-02-06 04:05:00,36.9,27.7,29.76,West,270,0.0,1.6,69,0.00,,,0.00,WUHU216HW,2013-02-06 11:05:00,
2013-02-06 04:15:00,36.5,27.4,29.76,SSE,158,1.1,1.3,69,0.00,,,0.00,WUHU216HW,2013-02-06 11:15:00,
2013-02-06 04:26:00,36.2,27.4,29.76,SSW,203,1.8,2.2,70,0.00,,,0.00,WUHU216HW,2013-02-06 11:26:00,
2013-02-06 04:36:00,35.6,26.8,29.76,South,180,0.4,3.1,70,0.00,,,0.00,WUHU216HW,2013-02-06 11:36:00,
2013-02-06 04:46:00,35.3,26.8,29.76,ENE,68,0.4,2.7,71,0.00,,,0.00,WUHU216HW,2013-02-06 11:46:00,
2013-02-06 04:56:00,34.9,26.7,29.76,SSE,158,2.7,4.3,72,0.00,,,0.00,WUHU216HW,2013-02-06 11:56:00,
2013-02-06 05:06:00,34.6,26.7,29.77,South,180,2.0,4.5,73,0.00,,,0.00,WUHU216HW,2013-02-06 12:06:00,
2013-02-06 05:17:00,34.4,26.8,29.76,West,270,5.4,6.0,74,0.00,,,0.00,WUHU216HW,2013-02-06 12:17:00,
2013-02-06 05:27:00,34.2,27.0,29.76,SSW,203,4.5,5.4,75,0.00,,,0.00,WUHU216HW,2013-02-06 12:27:00,
2013-02-06 05:37:00,34.0,27.8,29.77,SE,135,1.8,5.8,78,0.00,,,0.00,WUHU216HW,2013-02-06 12:37:00,
2013-02-06 05:47:00,34.2,28.3,29.77,South,180,3.4,6.7,79,0.00,,,0.00,WUHU216HW,2013-02-06 12:47:00,
2013-02-06 05:57:00,34.2,28.3,29.77,East,90,4.5,5.4,79,0.00,,,0.00,WUHU216HW,2013-02-06 12:57:00,
2013-02-06 06:07:00,34.0,28.4,29.77,SE,135,3.8,5.8,80,0.00,,,0.00,WUHU216HW,2013-02-06 13:07:00,
2013-02-06 06:19:00,34.0,28.7,29.77,SE,135,1.8,6.7,81,0.00,,,0.00,WUHU216HW,2013-02-06 13:19:00,
2013-02-06 06:30:00,34.4,29.1,29.77,SSE,158,2.9,4.5,81,0.00,,,0.00,WUHU216HW,2013-02-06 13:30:00,
2013-02-06 06:40:00,34.6,29.3,29.78,SSE,158,1.6,4.7,81,0.00,,,0.00,WUHU216HW,2013-02-06 13:40:00,
2013-02-06 06:50:00,34.6,29.5,29.78,ESE,113,1.1,3.6,82,0.00,,,0.00,WUHU216HW,2013-02-06 13:50:00,
2013-02-06 07:00:00,34.4,29.3,29.78,SE,135,2.2,4.3,82,0.00,,,0.00,WUHU216HW,2013-02-06 14:00:00,
2013-02-06 07:10:00,34.2,29.2,29.78,SE,135,3.1,4.7,82,0.00,,,0.00,WUHU216HW,2013-02-06 14:10:00,
2013-02-06 07:20:00,33.8,28.8,29.79,SE,135,3.8,4.7,82,0.00,,,0.00,WUHU216HW,2013-02-06 14:20:00,
2013-02-06 07:30:00,33.7,28.7,29.79,SE,135,2.7,5.1,82,0.00,,,0.00,WUHU216HW,2013-02-06 14:30:00,
2013-02-06 07:41:00,33.5,28.5,29.79,South,180,1.8,5.1,82,0.00,,,0.00,WUHU216HW,2013-02-06 14:41:00,
2013-02-06 07:51:00,33.3,28.4,29.79,SSW,203,1.8,5.1,82,0.00,,,0.00,WUHU216HW,2013-02-06 14:51:00,
2013-02-06 08:01:00,33.3,28.6,29.79,SSE,158,6.3,6.3,83,0.00,,,0.00,WUHU216HW,2013-02-06 15:01:00,
2013-02-06 08:11:00,33.1,28.4,29.79,SE,135,3.8,3.8,83,0.00,,,0.00,WUHU216HW,2013-02-06 15:11:00,
2013-02-06 08:22:00,33.3,28.6,29.80,SSE,158,4.3,5.8,83,0.00,,,0.00,WUHU216HW,2013-02-06 15:22:00,
2013-02-06 08:32:00,33.5,28.8,29.80,ESE,113,5.8,5.8,83,0.00,,,0.00,WUHU216HW,2013-02-06 15:32:00,
2013-02-06 08:43:00,34.0,29.4,29.80,SE,135,3.4,6.3,83,0.00,,,0.00,WUHU216HW,2013-02-06 15:43:00,
2013-02-06 08:53:00,34.9,30.3,29.81,SSE,158,5.8,5.8,83,0.00,,,0.00,WUHU216HW,2013-02-06 15:53:00,
2013-02-06 09:03:00,35.5,30.4,29.81,SE,135,6.7,7.8,82,0.00,,,0.00,WUHU216HW,2013-02-06 16:03:00,
2013-02-06 09:13:00,36.2,30.9,29.81,SE,135,4.3,5.8,81,0.00,,,0.00,WUHU216HW,2013-02-06 16:13:00,
2013-02-06 09:23:00,36.5,31.0,29.81,ESE,113,8.5,8.5,80,0.00,,,0.00,WUHU216HW,2013-02-06 16:23:00,
2013-02-06 09:34:00,37.1,31.5,29.82,SSE,158,3.4,7.4,80,0.01,,,0.01,WUHU216HW,2013-02-06 16:34:00,
2013-02-06 09:44:00,37.3,31.3,29.82,SSE,158,6.0,6.0,79,0.01,,,0.01,WUHU216HW,2013-02-06 16:44:00,
2013-02-06 09:54:00,37.4,31.5,29.82,SE,135,8.7,8.7,79,0.01,,,0.01,WUHU216HW,2013-02-06 16:54:00,
2013-02-06 10:05:00,37.6,31.7,29.82,SSE,158,4.7,10.1,79,0.01,,,0.01,WUHU216HW,2013-02-06 17:05:00,
2013-02-06 10:15:00,37.8,31.9,29.82,SSE,158,5.8,9.6,79,0.01,,,0.01,WUHU216HW,2013-02-06 17:15:00,
2013-02-06 10:25:00,38.0,32.0,29.82,ESE,113,7.4,7.6,79,0.00,,,0.01,WUHU216HW,2013-02-06 17:25:00,
2013-02-06 10:35:00,38.3,32.4,29.82,SSE,158,1.8,7.6,79,0.00,,,0.01,WUHU216HW,2013-02-06 17:35:00,
2013-02-06 10:45:00,38.9,32.9,29.84,SE,135,1.8,6.3,79,0.00,,,0.01,WUHU216HW,2013-02-06 17:45:00,
2013-02-06 10:55:00,39.6,33.3,29.84,SSE,158,4.3,6.7,78,0.00,,,0.01,WUHU216HW,2013-02-06 17:55:00,
2013-02-06 11:06:00,40.0,33.3,29.84,South,180,6.3,6.3,77,0.00,,,0.01,WUHU216HW,2013-02-06 18:06:00,
2013-02-06 11:16:00,40.3,33.3,29.85,SSE,158,1.6,7.8,76,0.00,,,0.01,WUHU216HW,2013-02-06 18:16:00,
2013-02-06 11:26:00,41.0,34.0,29.85,ESE,113,2.0,6.5,76,0.00,,,0.01,WUHU216HW,2013-02-06 18:26:00,
2013-02-06 11:36:00,42.1,34.4,29.85,SW,225,1.8,6.3,74,0.00,,,0.01,WUHU216HW,2013-02-06 18:36:00,
2013-02-06 11:46:00,42.7,34.3,29.84,SE,135,4.0,6.5,72,0.00,,,0.01,WUHU216HW,2013-02-06 18:46:00,
2013-02-06 11:56:00,43.4,34.7,29.85,SSW,203,4.0,7.6,71,0.00,,,0.01,WUHU216HW,2013-02-06 18:56:00,
2013-02-06 12:06:00,43.4,34.3,29.85,South,180,10.5,10.5,70,0.00,,,0.01,WUHU216HW,2013-02-06 19:06:00,
2013-02-06 12:16:00,42.1,33.1,29.85,ESE,113,3.1,7.8,70,0.00,,,0.01,WUHU216HW,2013-02-06 19:16:00,
2013-02-06 12:26:00,41.4,33.0,29.85,SSW,203,2.9,7.2,72,0.00,,,0.01,WUHU216HW,2013-02-06 19:26:00,
2013-02-06 12:36:00,41.2,33.2,29.85,ESE,113,1.8,4.0,73,0.00,,,0.01,WUHU216HW,2013-02-06 19:36:00,
2013-02-06 12:46:00,41.4,33.4,29.85,ENE,68,4.3,4.3,73,0.00,,,0.01,WUHU216HW,2013-02-06 19:46:00,
2013-02-06 12:56:00,41.9,33.9,29.84,WNW,293,2.5,2.5,73,0.00,,,0.01,WUHU216HW,2013-02-06 19:56:00,
2013-02-06 13:06:00,42.1,34.1,29.84,South,180,4.0,4.0,73,0.00,,,0.01,WUHU216HW,2013-02-06 20:06:00,
2013-02-06 13:16:00,43.0,34.7,29.84,South,180,2.5,4.7,72,0.00,,,0.01,WUHU216HW,2013-02-06 20:16:00,
2013-02-06 13:26:00,43.9,35.5,29.85,SSE,158,7.6,7.6,72,0.00,,,0.01,WUHU216HW,2013-02-06 20:26:00,
2013-02-06 13:37:00,44.1,35.6,29.85,South,180,5.1,8.5,72,0.00,,,0.01,WUHU216HW,2013-02-06 20:37:00,
2013-02-06 13:47:00,44.1,35.0,29.85,South,180,1.8,8.1,70,0.00,,,0.01,WUHU216HW,2013-02-06 20:47:00,
2013-02-06 13:57:00,43.6,33.8,29.85,South,180,5.6,7.4,68,0.00,,,0.01,WUHU216HW,2013-02-06 20:57:00,
2013-02-06 14:08:00,42.5,32.7,29.85,SSW,203,5.6,11.2,68,0.00,,,0.01,WUHU216HW,2013-02-06 21:08:00,
2013-02-06 14:18:00,42.8,32.7,29.85,South,180,1.8,8.5,67,0.00,,,0.01,WUHU216HW,2013-02-06 21:18:00,
2013-02-06 14:28:00,43.0,32.1,29.85,SW,225,9.8,9.8,65,0.00,,,0.01,WUHU216HW,2013-02-06 21:28:00,
2013-02-06 14:38:00,43.0,30.9,29.85,SSE,158,8.7,11.9,62,0.00,,,0.01,WUHU216HW,2013-02-06 21:38:00,
2013-02-06 14:48:00,42.5,32.0,29.85,South,180,8.9,8.9,66,0.00,,,0.01,WUHU216HW,2013-02-06 21:48:00,
2013-02-06 14:58:00,41.8,31.6,29.86,SSW,203,1.8,9.2,67,0.00,,,0.01,WUHU216HW,2013-02-06 21:58:00,
2013-02-06 15:10:00,41.8,31.6,29.86,SW,225,1.3,7.4,67,0.00,,,0.01,WUHU216HW,2013-02-06 22:10:00,
2013-02-06 15:20:00,41.6,31.4,29.86,SW,225,4.5,6.3,67,0.00,,,0.01,WUHU216HW,2013-02-06 22:20:00,
2013-02-06 15:30:00,41.0,30.9,29.86,WSW,248,1.8,8.9,67,0.00,,,0.01,WUHU216HW,2013-02-06 22:30:00,
2013-02-06 15:40:00,40.5,30.3,29.87,WSW,248,3.8,8.1,67,0.00,,,0.01,WUHU216HW,2013-02-06 22:40:00,
2013-02-06 15:51:00,39.6,29.9,29.87,SW,225,4.5,12.5,68,0.00,,,0.01,WUHU216HW,2013-02-06 22:51:00,
2013-02-06 16:01:00,39.2,29.9,29.87,SW,225,8.1,8.1,69,0.00,,,0.01,WUHU216HW,2013-02-06 23:01:00,
2013-02-06 16:11:00,39.6,29.4,29.87,SW,225,2.9,8.3,67,0.00,,,0.01,WUHU216HW,2013-02-06 23:11:00,
2013-02-06 16:21:00,40.0,29.4,29.88,West,270,3.1,6.7,66,0.00,,,0.01,WUHU216HW,2013-02-06 23:21:00,
2013-02-06 16:31:00,40.1,29.3,29.87,SW,225,7.8,7.8,65,0.00,,,0.01,WUHU216HW,2013-02-06 23:31:00,
2013-02-06 16:41:00,40.1,28.9,29.88,SSW,203,2.5,7.6,64,0.00,,,0.01,WUHU216HW,2013-02-06 23:41:00,
2013-02-06 16:51:00,40.1,28.9,29.88,SSW,203,2.2,4.5,64,0.00,,,0.01,WUHU216HW,2013-02-06 23:51:00,
2013-02-06 17:02:00,40.0,28.4,29.88,SSW,203,2.5,3.1,63,0.00,,,0.01,WUHU216HW,2013-02-07 00:02:00,
2013-02-06 17:13:00,39.8,28.2,29.89,SW,225,3.8,3.8,63,0.00,,,0.01,WUHU216HW,2013-02-07 00:13:00,
2013-02-06 17:23:00,39.1,27.8,29.89,SW,225,2.5,4.3,64,0.00,,,0.01,WUHU216HW,2013-02-07 00:23:00,
2013-02-06 17:33:00,38.7,27.5,29.89,SW,225,2.5,3.1,64,0.00,,,0.01,WUHU216HW,2013-02-07 00:33:00,
2013-02-06 17:43:00,38.3,27.2,29.89,SE,135,1.3,2.2,64,0.00,,,0.01,WUHU216HW,2013-02-07 00:43:00,
2013-02-06 17:53:00,38.0,26.8,29.89,WSW,248,0.4,2.7,64,0.00,,,0.01,WUHU216HW,2013-02-07 00:53:00,
2013-02-06 18:03:00,37.8,26.6,29.89,NNW,338,0.9,1.3,64,0.00,,,0.01,WUHU216HW,2013-02-07 01:03:00,
2013-02-06 18:13:00,37.8,26.6,29.89,SSE,158,0.4,1.1,64,0.00,,,0.01,WUHU216HW,2013-02-07 01:13:00,
2013-02-06 18:24:00,38.0,26.8,29.89,ESE,113,2.0,2.5,64,0.00,,,0.01,WUHU216HW,2013-02-07 01:24:00,
2013-02-06 18:35:00,38.0,26.8,29.89,SE,135,2.5,2.5,64,0.00,,,0.01,WUHU216HW,2013-02-07 01:35:00,
2013-02-06 18:45:00,38.0,26.8,29.89,South,180,1.6,3.8,64,0.00,,,0.01,WUHU216HW,2013-02-07 01:45:00,
2013-02-06 18:55:00,38.0,26.8,29.89,SSE,158,3.4,3.4,64,0.00,,,0.01,WUHU216HW,2013-02-07 01:55:00,
2013-02-06 19:06:00,37.8,26.6,29.89,SE,135,2.0,3.8,64,0.00,,,0.01,WUHU216HW,2013-02-07 02:06:00,
2013-02-06 19:17:00,37.3,26.2,29.89,SSE,158,4.0,4.7,64,0.00,,,0.01,WUHU216HW,2013-02-07 02:17:00,
2013-02-06 19:27:00,37.1,26.4,29.89,SSE,158,4.0,5.8,65,0.00,,,0.01,WUHU216HW,2013-02-07 02:27:00,
2013-02-06 19:37:00,36.7,26.5,29.89,SSE,158,3.8,6.3,66,0.00,,,0.01,WUHU216HW,2013-02-07 02:37:00,
2013-02-06 19:47:00,36.4,26.1,29.89,SSE,158,4.9,5.8,66,0.00,,,0.01,WUHU216HW,2013-02-07 02:47:00,
2013-02-06 19:58:00,35.8,25.9,29.89,SSW,203,6.7,6.7,67,0.00,,,0.01,WUHU216HW,2013-02-07 02:58:00,
2013-02-06 20:08:00,35.3,25.7,29.89,SSE,158,4.5,7.6,68,0.00,,,0.01,WUHU216HW,2013-02-07 03:08:00,
2013-02-06 20:20:00,34.9,25.4,29.89,ESE,113,5.1,6.3,68,0.00,,,0.01,WUHU216HW,2013-02-07 03:20:00,
2013-02-06 20:30:00,34.7,25.6,29.89,SE,135,3.1,4.7,69,0.00,,,0.01,WUHU216HW,2013-02-07 03:30:00,
2013-02-06 20:40:00,34.6,25.4,29.89,SE,135,0.7,4.3,69,0.00,,,0.01,WUHU216HW,2013-02-07 03:40:00,
2013-02-06 20:50:00,34.4,25.2,29.89,South,180,3.4,4.0,69,0.00,,,0.01,WUHU216HW,2013-02-07 03:50:00,
2013-02-06 21:00:00,34.7,25.6,29.89,South,180,4.3,4.3,69,0.00,,,0.01,WUHU216HW,2013-02-07 04:00:00,
2013-02-06 21:10:00,34.6,25.4,29.89,ESE,113,0.0,3.8,69,0.00,,,0.01,WUHU216HW,2013-02-07 04:10:00,
2013-02-06 21:20:00,34.6,25.4,29.89,SE,135,2.0,3.4,69,0.00,,,0.01,WUHU216HW,2013-02-07 04:20:00,
2013-02-06 21:30:00,34.6,25.4,29.89,South,180,2.5,2.5,69,0.00,,,0.01,WUHU216HW,2013-02-07 04:30:00,
2013-02-06 21:41:00,34.2,25.0,29.89,South,180,2.5,2.9,69,0.00,,,0.01,WUHU216HW,2013-02-07 04:41:00,
2013-02-06 21:51:00,34.2,25.0,29.89,SSW,203,3.1,4.0,69,0.00,,,0.01,WUHU216HW,2013-02-07 04:51:00,
2013-02-06 22:02:00,33.5,24.7,29.89,South,180,1.8,3.8,70,0.00,,,0.01,WUHU216HW,2013-02-07 05:02:00,
2013-02-06 22:12:00,33.5,24.3,29.89,SSW,203,3.4,4.0,69,0.00,,,0.01,WUHU216HW,2013-02-07 05:12:00,
2013-02-06 22:23:00,33.5,24.3,29.88,SSE,158,2.9,4.0,69,0.00,,,0.01,WUHU216HW,2013-02-07 05:23:00,
2013-02-06 22:34:00,33.1,24.0,29.88,SSE,158,3.4,6.7,69,0.00,,,0.01,WUHU216HW,2013-02-07 05:34:00,
2013-02-06 22:44:00,32.9,24.2,29.88,SSW,203,2.9,6.9,70,0.00,,,0.01,WUHU216HW,2013-02-07 05:44:00,
2013-02-06 22:54:00,32.6,24.2,29.88,South,180,6.0,6.9,71,0.00,,,0.01,WUHU216HW,2013-02-07 05:54:00,
2013-02-06 23:04:00,31.9,23.9,29.88,South,180,6.3,6.9,72,0.00,,,0.01,WUHU216HW,2013-02-07 06:04:00,
2013-02-06 23:14:00,31.3,23.7,29.88,SSE,158,3.6,6.3,73,0.00,,,0.01,WUHU216HW,2013-02-07 06:14:00,
2013-02-06 23:24:00,31.0,23.3,29.88,SE,135,1.8,6.3,73,0.00,,,0.01,WUHU216HW,2013-02-07 06:24:00,
2013-02-06 23:34:00,30.6,23.0,29.88,SSE,158,1.8,4.7,73,0.00,,,0.01,WUHU216HW,2013-02-07 06:34:00,
2013-02-06 23:44:00,30.4,22.8,29.88,SSE,158,1.8,3.4,73,0.00,,,0.01,WUHU216HW,2013-02-07 06:44:00,
2013-02-06 23:55:00,30.2,22.9,29.87,SE,135,4.5,4.5,74,0.00,,,0.01,WUHU216HW,2013-02-07 06:55:00,